sensor_id;sensor_type;location;lat;lon;timestamp;pressure;altitude;pressure_sealevel;temperature;humidity
39954;BME280;25631;51.516;-0.470;2022-11-02T00:01:44;100864.45;;;6.89;45.14
39954;BME280;25631;51.516;-0.470;2022-11-02T00:04:21;100876.51;;;7.32;44.70
39954;BME280;25631;51.516;-0.470;2022-11-02T00:06:57;100881.16;;;7.45;44.76
39954;BME280;25631;51.516;-0.470;2022-11-02T00:09:34;100893.90;;;7.46;44.72
39954;BME280;25631;51.516;-0.470;2022-11-02T00:12:10;100900.93;;;7.45;44.70
39954;BME280;25631;51.516;-0.470;2022-11-02T00:14:47;100908.42;;;7.36;44.36
39954;BME280;25631;51.516;-0.470;2022-11-02T00:17:23;100911.43;;;7.47;44.57
39954;BME280;25631;51.516;-0.470;2022-11-02T00:20:00;100921.65;;;7.42;44.45
39954;BME280;25631;51.516;-0.470;2022-11-02T00:22:38;100931.23;;;7.60;44.59
39954;BME280;25631;51.516;-0.470;2022-11-02T00:25:17;100935.81;;;7.61;44.31
39954;BME280;25631;51.516;-0.470;2022-11-02T00:27:56;100944.92;;;7.32;44.25
39954;BME280;25631;51.516;-0.470;2022-11-02T00:30:33;100945.24;;;7.17;44.06
39954;BME280;25631;51.516;-0.470;2022-11-02T00:33:09;100949.14;;;7.34;43.75
39954;BME280;25631;51.516;-0.470;2022-11-02T00:35:46;100963.66;;;7.48;43.60
39954;BME280;25631;51.516;-0.470;2022-11-02T00:38:22;100966.73;;;7.44;43.60
39954;BME280;25631;51.516;-0.470;2022-11-02T00:40:59;100971.28;;;7.64;43.58
39954;BME280;25631;51.516;-0.470;2022-11-02T00:43:36;100987.90;;;7.47;43.42
39954;BME280;25631;51.516;-0.470;2022-11-02T00:46:12;100989.25;;;7.80;43.35
39954;BME280;25631;51.516;-0.470;2022-11-02T00:48:49;100998.84;;;7.54;43.37
39954;BME280;25631;51.516;-0.470;2022-11-02T00:51:26;101004.28;;;7.72;43.39
39954;BME280;25631;51.516;-0.470;2022-11-02T00:54:02;101013.77;;;7.35;43.51
39954;BME280;25631;51.516;-0.470;2022-11-02T00:56:39;101016.29;;;7.25;43.63
39954;BME280;25631;51.516;-0.470;2022-11-02T00:59:15;101022.07;;;7.39;43.52
39954;BME280;25631;51.516;-0.470;2022-11-02T01:01:52;101026.47;;;7.71;43.26
39954;BME280;25631;51.516;-0.470;2022-11-02T01:04:28;101040.07;;;7.85;43.42
39954;BME280;25631;51.516;-0.470;2022-11-02T01:07:05;101044.24;;;7.53;43.44
39954;BME280;25631;51.516;-0.470;2022-11-02T01:09:41;101053.27;;;7.96;43.51
39954;BME280;25631;51.516;-0.470;2022-11-02T01:12:18;101055.50;;;7.74;43.59
39954;BME280;25631;51.516;-0.470;2022-11-02T01:14:54;101060.80;;;7.68;43.62
39954;BME280;25631;51.516;-0.470;2022-11-02T01:17:30;101062.54;;;7.38;43.62
39954;BME280;25631;51.516;-0.470;2022-11-02T01:20:08;101064.68;;;7.72;43.34
39954;BME280;25631;51.516;-0.470;2022-11-02T01:22:44;101074.53;;;7.52;43.12
39954;BME280;25631;51.516;-0.470;2022-11-02T01:25:20;101080.03;;;7.49;43.31
39954;BME280;25631;51.516;-0.470;2022-11-02T01:27:57;101088.26;;;7.24;43.40
39954;BME280;25631;51.516;-0.470;2022-11-02T01:30:33;101095.63;;;7.61;43.31
39954;BME280;25631;51.516;-0.470;2022-11-02T01:33:10;101094.80;;;7.56;43.29
39954;BME280;25631;51.516;-0.470;2022-11-02T01:35:46;101101.34;;;7.92;43.22
39954;BME280;25631;51.516;-0.470;2022-11-02T01:38:23;101101.14;;;7.65;43.02
39954;BME280;25631;51.516;-0.470;2022-11-02T01:40:59;101108.06;;;7.72;43.19
39954;BME280;25631;51.516;-0.470;2022-11-02T01:43:36;101113.04;;;7.70;43.45
39954;BME280;25631;51.516;-0.470;2022-11-02T01:46:17;101119.52;;;7.80;43.47
39954;BME280;25631;51.516;-0.470;2022-11-02T01:48:59;101124.10;;;7.63;43.71
39954;BME280;25631;51.516;-0.470;2022-11-02T01:51:41;101120.81;;;7.43;44.14
39954;BME280;25631;51.516;-0.470;2022-11-02T01:54:22;101125.12;;;7.28;43.92
39954;BME280;25631;51.516;-0.470;2022-11-02T01:57:03;101126.77;;;7.42;44.34
39954;BME280;25631;51.516;-0.470;2022-11-02T01:59:44;101132.78;;;7.45;44.28
39954;BME280;25631;51.516;-0.470;2022-11-02T02:02:24;101134.74;;;7.38;44.49
39954;BME280;25631;51.516;-0.470;2022-11-02T02:05:03;101137.61;;;7.45;44.74
39954;BME280;25631;51.516;-0.470;2022-11-02T02:07:40;101140.63;;;7.34;44.60
39954;BME280;25631;51.516;-0.470;2022-11-02T02:10:17;101149.74;;;7.50;44.77
39954;BME280;25631;51.516;-0.470;2022-11-02T02:12:54;101157.13;;;7.54;44.75
39954;BME280;25631;51.516;-0.470;2022-11-02T02:15:49;101163.66;;;7.43;44.70
39954;BME280;25631;51.516;-0.470;2022-11-02T02:18:38;101177.35;;;7.55;44.49
39954;BME280;25631;51.516;-0.470;2022-11-02T02:21:30;101178.09;;;7.43;44.23
39954;BME280;25631;51.516;-0.470;2022-11-02T02:24:23;101179.57;;;7.22;44.51
39954;BME280;25631;51.516;-0.470;2022-11-02T02:27:11;101180.44;;;7.43;44.62
39954;BME280;25631;51.516;-0.470;2022-11-02T02:29:58;101177.67;;;7.51;44.51
39954;BME280;25631;51.516;-0.470;2022-11-02T02:32:42;101183.16;;;7.56;44.66
39954;BME280;25631;51.516;-0.470;2022-11-02T02:35:24;101184.79;;;7.40;44.64
39954;BME280;25631;51.516;-0.470;2022-11-02T02:38:05;101187.80;;;7.63;44.84
39954;BME280;25631;51.516;-0.470;2022-11-02T02:40:48;101188.13;;;7.92;44.44
39954;BME280;25631;51.516;-0.470;2022-11-02T02:43:31;101199.68;;;7.21;44.62
39954;BME280;25631;51.516;-0.470;2022-11-02T02:46:14;101202.75;;;7.37;44.54
39954;BME280;25631;51.516;-0.470;2022-11-02T02:48:56;101200.01;;;7.54;44.56
39954;BME280;25631;51.516;-0.470;2022-11-02T02:51:33;101208.27;;;7.42;44.54
39954;BME280;25631;51.516;-0.470;2022-11-02T02:54:15;101215.43;;;7.34;44.52
39954;BME280;25631;51.516;-0.470;2022-11-02T02:56:57;101224.35;;;7.23;44.80
39954;BME280;25631;51.516;-0.470;2022-11-02T02:59:39;101228.15;;;7.57;44.60
39954;BME280;25631;51.516;-0.470;2022-11-02T03:02:20;101226.66;;;7.16;44.83
39954;BME280;25631;51.516;-0.470;2022-11-02T03:04:58;101234.16;;;7.32;44.69
39954;BME280;25631;51.516;-0.470;2022-11-02T03:07:34;101234.94;;;7.25;44.74
39954;BME280;25631;51.516;-0.470;2022-11-02T03:10:17;101237.16;;;7.21;44.62
39954;BME280;25631;51.516;-0.470;2022-11-02T03:13:05;101243.01;;;7.23;44.69
39954;BME280;25631;51.516;-0.470;2022-11-02T03:15:49;101252.24;;;7.22;44.52
39954;BME280;25631;51.516;-0.470;2022-11-02T03:18:35;101242.13;;;7.02;44.62
39954;BME280;25631;51.516;-0.470;2022-11-02T03:21:22;101249.68;;;7.25;44.51
39954;BME280;25631;51.516;-0.470;2022-11-02T03:24:04;101253.87;;;7.16;44.50
39954;BME280;25631;51.516;-0.470;2022-11-02T03:26:47;101256.78;;;7.33;44.47
39954;BME280;25631;51.516;-0.470;2022-11-02T03:29:32;101260.40;;;6.80;44.41
39954;BME280;25631;51.516;-0.470;2022-11-02T03:32:16;101262.87;;;7.20;44.38
39954;BME280;25631;51.516;-0.470;2022-11-02T03:34:57;101271.31;;;7.04;44.53
39954;BME280;25631;51.516;-0.470;2022-11-02T03:37:37;101275.65;;;7.12;44.55
39954;BME280;25631;51.516;-0.470;2022-11-02T03:40:19;101273.63;;;7.31;44.39
39954;BME280;25631;51.516;-0.470;2022-11-02T03:42:57;101279.17;;;7.10;44.44
39954;BME280;25631;51.516;-0.470;2022-11-02T03:45:38;101277.67;;;7.06;44.44
39954;BME280;25631;51.516;-0.470;2022-11-02T03:48:16;101286.72;;;6.69;44.52
39954;BME280;25631;51.516;-0.470;2022-11-02T03:50:53;101291.41;;;7.19;44.41
39954;BME280;25631;51.516;-0.470;2022-11-02T03:53:36;101298.42;;;7.13;44.33
39954;BME280;25631;51.516;-0.470;2022-11-02T03:56:21;101307.22;;;7.30;44.39
39954;BME280;25631;51.516;-0.470;2022-11-02T03:59:00;101315.86;;;7.06;44.40
39954;BME280;25631;51.516;-0.470;2022-11-02T04:01:39;101324.09;;;7.08;44.58
39954;BME280;25631;51.516;-0.470;2022-11-02T04:04:16;101326.24;;;6.86;44.48
39954;BME280;25631;51.516;-0.470;2022-11-02T04:06:53;101332.07;;;7.47;44.42
39954;BME280;25631;51.516;-0.470;2022-11-02T04:09:30;101335.66;;;7.35;44.23
39954;BME280;25631;51.516;-0.470;2022-11-02T04:12:07;101338.31;;;6.89;44.31
39954;BME280;25631;51.516;-0.470;2022-11-02T04:14:44;101344.24;;;7.26;44.10
39954;BME280;25631;51.516;-0.470;2022-11-02T04:17:20;101350.88;;;7.47;44.08
39954;BME280;25631;51.516;-0.470;2022-11-02T04:19:57;101355.18;;;7.09;44.07
39954;BME280;25631;51.516;-0.470;2022-11-02T04:22:33;101360.29;;;7.31;43.96
39954;BME280;25631;51.516;-0.470;2022-11-02T04:25:12;101361.89;;;7.25;43.93
39954;BME280;25631;51.516;-0.470;2022-11-02T04:27:50;101365.34;;;7.01;43.94
39954;BME280;25631;51.516;-0.470;2022-11-02T04:30:26;101365.52;;;7.44;43.78
39954;BME280;25631;51.516;-0.470;2022-11-02T04:33:03;101360.71;;;7.08;43.72
39954;BME280;25631;51.516;-0.470;2022-11-02T04:35:39;101361.71;;;7.14;43.63
39954;BME280;25631;51.516;-0.470;2022-11-02T04:38:15;101369.57;;;7.53;43.64
39954;BME280;25631;51.516;-0.470;2022-11-02T04:40:52;101373.01;;;7.56;43.57
39954;BME280;25631;51.516;-0.470;2022-11-02T04:43:28;101377.98;;;7.38;43.59
39954;BME280;25631;51.516;-0.470;2022-11-02T04:46:04;101378.57;;;7.51;43.57
39954;BME280;25631;51.516;-0.470;2022-11-02T04:48:41;101381.14;;;7.58;43.60
39954;BME280;25631;51.516;-0.470;2022-11-02T04:51:18;101380.31;;;7.42;43.71
39954;BME280;25631;51.516;-0.470;2022-11-02T04:53:55;101381.52;;;7.04;43.78
39954;BME280;25631;51.516;-0.470;2022-11-02T04:56:32;101387.05;;;7.18;43.76
39954;BME280;25631;51.516;-0.470;2022-11-02T04:59:08;101382.67;;;7.25;43.88
39954;BME280;25631;51.516;-0.470;2022-11-02T05:01:45;101388.59;;;7.05;43.96
39954;BME280;25631;51.516;-0.470;2022-11-02T05:04:21;101388.75;;;6.95;43.93
39954;BME280;25631;51.516;-0.470;2022-11-02T05:06:57;101392.66;;;7.09;43.84
39954;BME280;25631;51.516;-0.470;2022-11-02T05:09:34;101397.76;;;7.01;43.87
39954;BME280;25631;51.516;-0.470;2022-11-02T05:12:10;101400.69;;;6.95;43.90
39954;BME280;25631;51.516;-0.470;2022-11-02T05:14:46;101400.68;;;6.80;43.99
39954;BME280;25631;51.516;-0.470;2022-11-02T05:17:23;101401.12;;;6.68;43.97
39954;BME280;25631;51.516;-0.470;2022-11-02T05:19:59;101404.46;;;7.06;43.88
39954;BME280;25631;51.516;-0.470;2022-11-02T05:22:35;101411.26;;;6.72;44.07
39954;BME280;25631;51.516;-0.470;2022-11-02T05:25:16;101411.90;;;6.91;44.01
39954;BME280;25631;51.516;-0.470;2022-11-02T05:27:52;101408.53;;;6.80;44.15
39954;BME280;25631;51.516;-0.470;2022-11-02T05:30:31;101407.31;;;6.66;44.10
39954;BME280;25631;51.516;-0.470;2022-11-02T05:33:07;101405.91;;;6.93;44.08
39954;BME280;25631;51.516;-0.470;2022-11-02T05:35:43;101407.87;;;6.77;44.08
39954;BME280;25631;51.516;-0.470;2022-11-02T05:38:20;101398.64;;;6.80;44.13
39954;BME280;25631;51.516;-0.470;2022-11-02T05:40:58;101399.37;;;6.92;44.26
39954;BME280;25631;51.516;-0.470;2022-11-02T05:43:34;101401.01;;;6.84;44.15
39954;BME280;25631;51.516;-0.470;2022-11-02T05:46:11;101400.45;;;6.71;44.13
39954;BME280;25631;51.516;-0.470;2022-11-02T05:48:47;101400.75;;;6.56;44.21
39954;BME280;25631;51.516;-0.470;2022-11-02T05:51:23;101400.80;;;6.83;44.23
39954;BME280;25631;51.516;-0.470;2022-11-02T05:54:00;101407.08;;;6.63;44.23
39954;BME280;25631;51.516;-0.470;2022-11-02T05:56:36;101405.20;;;6.37;44.42
39954;BME280;25631;51.516;-0.470;2022-11-02T05:59:13;101400.14;;;6.81;44.20
39954;BME280;25631;51.516;-0.470;2022-11-02T06:01:49;101406.81;;;6.63;44.14
39954;BME280;25631;51.516;-0.470;2022-11-02T06:04:25;101407.72;;;6.55;44.01
39954;BME280;25631;51.516;-0.470;2022-11-02T06:07:02;101403.83;;;6.81;43.93
39954;BME280;25631;51.516;-0.470;2022-11-02T06:09:38;101397.69;;;6.74;43.74
39954;BME280;25631;51.516;-0.470;2022-11-02T06:12:14;101399.90;;;7.08;43.65
39954;BME280;25631;51.516;-0.470;2022-11-02T06:14:51;101398.90;;;7.05;43.64
39954;BME280;25631;51.516;-0.470;2022-11-02T06:17:27;101394.12;;;6.68;43.58
39954;BME280;25631;51.516;-0.470;2022-11-02T06:20:05;101397.70;;;7.11;43.51
39954;BME280;25631;51.516;-0.470;2022-11-02T06:22:42;101399.36;;;6.87;43.53
39954;BME280;25631;51.516;-0.470;2022-11-02T06:25:18;101397.52;;;6.00;43.58
39954;BME280;25631;51.516;-0.470;2022-11-02T06:27:55;101391.90;;;6.85;43.49
39954;BME280;25631;51.516;-0.470;2022-11-02T06:30:32;101394.39;;;6.92;43.42
39954;BME280;25631;51.516;-0.470;2022-11-02T06:33:08;101395.23;;;6.77;43.49
39954;BME280;25631;51.516;-0.470;2022-11-02T06:35:45;101392.10;;;7.00;43.47
39954;BME280;25631;51.516;-0.470;2022-11-02T06:38:22;101392.13;;;7.16;43.36
39954;BME280;25631;51.516;-0.470;2022-11-02T06:41:00;101401.07;;;7.27;43.29
39954;BME280;25631;51.516;-0.470;2022-11-02T06:43:37;101401.02;;;7.29;43.25
39954;BME280;25631;51.516;-0.470;2022-11-02T06:46:13;101405.96;;;7.18;43.23
39954;BME280;25631;51.516;-0.470;2022-11-02T06:48:50;101410.03;;;7.04;43.44
39954;BME280;25631;51.516;-0.470;2022-11-02T06:51:26;101419.94;;;6.90;43.39
39954;BME280;25631;51.516;-0.470;2022-11-02T06:54:03;101418.20;;;7.00;43.43
39954;BME280;25631;51.516;-0.470;2022-11-02T06:56:39;101425.41;;;6.99;43.68
39954;BME280;25631;51.516;-0.470;2022-11-02T06:59:15;101425.40;;;6.97;43.71
39954;BME280;25631;51.516;-0.470;2022-11-02T07:01:52;101430.24;;;7.15;43.73
39954;BME280;25631;51.516;-0.470;2022-11-02T07:04:28;101431.84;;;6.93;43.74
39954;BME280;25631;51.516;-0.470;2022-11-02T07:07:04;101434.44;;;6.85;43.84
39954;BME280;25631;51.516;-0.470;2022-11-02T07:09:41;101437.81;;;6.95;43.84
39954;BME280;25631;51.516;-0.470;2022-11-02T07:12:17;101437.42;;;6.60;43.92
39954;BME280;25631;51.516;-0.470;2022-11-02T07:14:53;101437.41;;;6.98;43.99
39954;BME280;25631;51.516;-0.470;2022-11-02T07:17:30;101435.75;;;6.91;44.04
39954;BME280;25631;51.516;-0.470;2022-11-02T07:20:07;101434.60;;;6.96;44.04
39954;BME280;25631;51.516;-0.470;2022-11-02T07:22:51;101431.40;;;6.99;44.04
39954;BME280;25631;51.516;-0.470;2022-11-02T07:25:30;101426.15;;;7.21;44.05
39954;BME280;25631;51.516;-0.470;2022-11-02T07:28:06;101429.24;;;6.95;44.20
39954;BME280;25631;51.516;-0.470;2022-11-02T07:30:43;101424.68;;;6.71;44.30
39954;BME280;25631;51.516;-0.470;2022-11-02T07:33:19;101423.70;;;6.80;44.39
39954;BME280;25631;51.516;-0.470;2022-11-02T07:35:56;101421.21;;;6.80;44.46
39954;BME280;25631;51.516;-0.470;2022-11-02T07:38:33;101427.14;;;6.78;44.58
39954;BME280;25631;51.516;-0.470;2022-11-02T07:41:09;101429.29;;;7.17;44.57
39954;BME280;25631;51.516;-0.470;2022-11-02T07:43:45;101433.41;;;7.07;44.52
39954;BME280;25631;51.516;-0.470;2022-11-02T07:46:22;101434.33;;;7.10;44.47
39954;BME280;25631;51.516;-0.470;2022-11-02T07:48:58;101438.41;;;7.06;44.55
39954;BME280;25631;51.516;-0.470;2022-11-02T07:51:35;101438.59;;;7.00;44.63
39954;BME280;25631;51.516;-0.470;2022-11-02T07:54:11;101441.34;;;7.05;44.61
39954;BME280;25631;51.516;-0.470;2022-11-02T07:56:47;101446.83;;;7.03;44.55
39954;BME280;25631;51.516;-0.470;2022-11-02T07:59:24;101446.76;;;7.12;44.48
39954;BME280;25631;51.516;-0.470;2022-11-02T08:02:00;101451.68;;;7.30;44.44
39954;BME280;25631;51.516;-0.470;2022-11-02T08:04:36;101450.82;;;7.11;44.56
39954;BME280;25631;51.516;-0.470;2022-11-02T08:07:13;101460.50;;;7.28;44.57
39954;BME280;25631;51.516;-0.470;2022-11-02T08:09:49;101459.92;;;7.26;44.49
39954;BME280;25631;51.516;-0.470;2022-11-02T08:12:26;101457.73;;;7.34;44.43
39954;BME280;25631;51.516;-0.470;2022-11-02T08:15:03;101458.24;;;7.54;44.32
39954;BME280;25631;51.516;-0.470;2022-11-02T08:17:39;101458.18;;;7.44;44.34
39954;BME280;25631;51.516;-0.470;2022-11-02T08:20:16;101454.45;;;7.20;44.44
39954;BME280;25631;51.516;-0.470;2022-11-02T08:22:52;101455.02;;;7.52;44.49
39954;BME280;25631;51.516;-0.470;2022-11-02T08:25:29;101451.46;;;6.74;44.34
39954;BME280;25631;51.516;-0.470;2022-11-02T08:28:06;101458.50;;;7.34;44.32
39954;BME280;25631;51.516;-0.470;2022-11-02T08:30:43;101453.55;;;7.21;44.48
39954;BME280;25631;51.516;-0.470;2022-11-02T08:33:20;101455.79;;;7.55;44.46
39954;BME280;25631;51.516;-0.470;2022-11-02T08:36:00;101459.23;;;7.33;44.55
39954;BME280;25631;51.516;-0.470;2022-11-02T08:38:37;101458.21;;;7.57;44.44
39954;BME280;25631;51.516;-0.470;2022-11-02T08:41:13;101458.16;;;7.52;44.36
39954;BME280;25631;51.516;-0.470;2022-11-02T08:43:50;101460.09;;;7.28;44.48
39954;BME280;25631;51.516;-0.470;2022-11-02T08:46:28;101462.07;;;7.66;44.34
39954;BME280;25631;51.516;-0.470;2022-11-02T08:49:05;101463.75;;;7.59;44.33
39954;BME280;25631;51.516;-0.470;2022-11-02T08:51:41;101460.24;;;7.86;44.39
39954;BME280;25631;51.516;-0.470;2022-11-02T08:54:17;101458.55;;;7.56;44.48
39954;BME280;25631;51.516;-0.470;2022-11-02T08:56:54;101451.64;;;7.76;44.42
39954;BME280;25631;51.516;-0.470;2022-11-02T08:59:30;101452.39;;;7.95;44.41
39954;BME280;25631;51.516;-0.470;2022-11-02T09:02:08;101449.53;;;7.66;44.58
39954;BME280;25631;51.516;-0.470;2022-11-02T09:04:45;101444.50;;;7.81;44.61
39954;BME280;25631;51.516;-0.470;2022-11-02T09:07:21;101438.29;;;8.05;44.53
39954;BME280;25631;51.516;-0.470;2022-11-02T09:09:57;101438.53;;;8.17;44.50
39954;BME280;25631;51.516;-0.470;2022-11-02T09:12:34;101442.47;;;8.39;44.53
39954;BME280;25631;51.516;-0.470;2022-11-02T09:15:10;101440.29;;;8.29;44.70
39954;BME280;25631;51.516;-0.470;2022-11-02T09:17:47;101432.95;;;8.21;44.79
39954;BME280;25631;51.516;-0.470;2022-11-02T09:20:23;101438.81;;;8.30;44.93
39954;BME280;25631;51.516;-0.470;2022-11-02T09:23:00;101444.53;;;8.67;44.89
39954;BME280;25631;51.516;-0.470;2022-11-02T09:25:36;101441.19;;;8.33;44.96
39954;BME280;25631;51.516;-0.470;2022-11-02T09:28:13;101435.53;;;8.34;44.99
39954;BME280;25631;51.516;-0.470;2022-11-02T09:30:49;101437.20;;;8.59;44.97
39954;BME280;25631;51.516;-0.470;2022-11-02T09:33:26;101430.68;;;8.58;44.95
39954;BME280;25631;51.516;-0.470;2022-11-02T09:36:03;101425.95;;;9.06;44.83
39954;BME280;25631;51.516;-0.470;2022-11-02T09:38:40;101428.12;;;8.73;44.73
39954;BME280;25631;51.516;-0.470;2022-11-02T09:41:21;101431.35;;;9.26;44.66
39954;BME280;25631;51.516;-0.470;2022-11-02T09:44:04;101435.10;;;9.06;44.58
39954;BME280;25631;51.516;-0.470;2022-11-02T09:46:44;101426.85;;;9.16;44.27
39954;BME280;25631;51.516;-0.470;2022-11-02T09:49:23;101434.45;;;8.97;44.42
39954;BME280;25631;51.516;-0.470;2022-11-02T09:52:01;101429.10;;;9.49;44.23
39954;BME280;25631;51.516;-0.470;2022-11-02T09:54:40;101422.53;;;9.80;44.20
39954;BME280;25631;51.516;-0.470;2022-11-02T09:57:25;101424.75;;;9.88;43.90
39954;BME280;25631;51.516;-0.470;2022-11-02T10:00:03;101417.91;;;9.68;43.83
39954;BME280;25631;51.516;-0.470;2022-11-02T10:02:49;101419.13;;;9.91;43.90
39954;BME280;25631;51.516;-0.470;2022-11-02T10:05:37;101416.12;;;9.95;43.64
39954;BME280;25631;51.516;-0.470;2022-11-02T10:08:27;101411.81;;;9.95;43.62
39954;BME280;25631;51.516;-0.470;2022-11-02T10:11:16;101410.35;;;10.03;43.23
39954;BME280;25631;51.516;-0.470;2022-11-02T10:13:59;101415.64;;;9.92;43.31
39954;BME280;25631;51.516;-0.470;2022-11-02T10:16:43;101405.25;;;10.11;42.99
39954;BME280;25631;51.516;-0.470;2022-11-02T10:19:22;101400.36;;;9.96;42.91
39954;BME280;25631;51.516;-0.470;2022-11-02T10:22:00;101397.44;;;9.92;42.75
39954;BME280;25631;51.516;-0.470;2022-11-02T10:24:39;101387.15;;;10.16;42.52
39954;BME280;25631;51.516;-0.470;2022-11-02T10:27:21;101379.09;;;10.28;42.40
39954;BME280;25631;51.516;-0.470;2022-11-02T10:30:03;101380.47;;;10.10;42.59
39954;BME280;25631;51.516;-0.470;2022-11-02T10:32:40;101379.16;;;10.55;42.59
39954;BME280;25631;51.516;-0.470;2022-11-02T10:35:21;101390.42;;;10.21;42.72
39954;BME280;25631;51.516;-0.470;2022-11-02T10:38:12;101382.71;;;10.36;42.31
39954;BME280;25631;51.516;-0.470;2022-11-02T10:41:04;101373.52;;;10.54;42.19
39954;BME280;25631;51.516;-0.470;2022-11-02T10:43:57;101369.46;;;10.58;42.28
39954;BME280;25631;51.516;-0.470;2022-11-02T10:46:42;101354.03;;;10.85;42.17
39954;BME280;25631;51.516;-0.470;2022-11-02T10:49:38;101350.61;;;11.12;41.95
39954;BME280;25631;51.516;-0.470;2022-11-02T10:52:19;101345.12;;;11.16;41.58
39954;BME280;25631;51.516;-0.470;2022-11-02T10:54:55;101345.41;;;11.23;41.53
39954;BME280;25631;51.516;-0.470;2022-11-02T10:57:32;101341.31;;;11.12;41.31
39954;BME280;25631;51.516;-0.470;2022-11-02T11:00:28;101341.34;;;10.59;41.32
39954;BME280;25631;51.516;-0.470;2022-11-02T11:03:08;101347.26;;;10.97;41.43
39954;BME280;25631;51.516;-0.470;2022-11-02T11:05:56;101348.50;;;10.71;43.68
39954;BME280;25631;51.516;-0.470;2022-11-02T11:08:36;101346.34;;;9.68;45.34
39954;BME280;25631;51.516;-0.470;2022-11-02T11:11:18;101336.47;;;9.73;45.95
39954;BME280;25631;51.516;-0.470;2022-11-02T11:13:58;101327.04;;;10.33;45.97
39954;BME280;25631;51.516;-0.470;2022-11-02T11:16:38;101307.79;;;10.01;46.56
39954;BME280;25631;51.516;-0.470;2022-11-02T11:19:20;101305.49;;;9.97;46.97
39954;BME280;25631;51.516;-0.470;2022-11-02T11:21:57;101292.24;;;10.17;47.01
39954;BME280;25631;51.516;-0.470;2022-11-02T11:24:34;101279.84;;;10.01;46.98
39954;BME280;25631;51.516;-0.470;2022-11-02T11:27:17;101276.50;;;10.58;46.74
39954;BME280;25631;51.516;-0.470;2022-11-02T11:29:55;101277.40;;;10.60;46.76
39954;BME280;25631;51.516;-0.470;2022-11-02T11:32:32;101268.02;;;10.36;46.59
39954;BME280;25631;51.516;-0.470;2022-11-02T11:35:15;101266.48;;;10.39;46.42
39954;BME280;25631;51.516;-0.470;2022-11-02T11:37:55;101258.94;;;10.74;46.14
39954;BME280;25631;51.516;-0.470;2022-11-02T11:40:36;101259.51;;;10.69;45.88
39954;BME280;25631;51.516;-0.470;2022-11-02T11:43:16;101249.55;;;10.65;45.13
39954;BME280;25631;51.516;-0.470;2022-11-02T11:45:55;101240.76;;;10.94;44.66
39954;BME280;25631;51.516;-0.470;2022-11-02T11:48:35;101243.59;;;11.13;44.28
39954;BME280;25631;51.516;-0.470;2022-11-02T11:51:30;101235.12;;;11.09;43.17
39954;BME280;25631;51.516;-0.470;2022-11-02T11:54:21;101226.14;;;11.19;42.91
39954;BME280;25631;51.516;-0.470;2022-11-02T11:57:19;101216.49;;;11.39;42.79
39954;BME280;25631;51.516;-0.470;2022-11-02T11:59:58;101216.12;;;11.41;41.81
39954;BME280;25631;51.516;-0.470;2022-11-02T12:02:35;101204.66;;;11.01;41.70
39954;BME280;25631;51.516;-0.470;2022-11-02T12:05:13;101200.56;;;11.21;41.30
39954;BME280;25631;51.516;-0.470;2022-11-02T12:08:19;101207.75;;;11.15;41.19
39954;BME280;25631;51.516;-0.470;2022-11-02T12:11:10;101195.37;;;11.29;41.94
39954;BME280;25631;51.516;-0.470;2022-11-02T12:13:56;101195.31;;;11.56;41.97
39954;BME280;25631;51.516;-0.470;2022-11-02T12:16:49;101190.58;;;11.44;41.99
39954;BME280;25631;51.516;-0.470;2022-11-02T12:19:40;101188.31;;;11.38;41.71
39954;BME280;25631;51.516;-0.470;2022-11-02T12:22:25;101181.33;;;11.35;41.35
39954;BME280;25631;51.516;-0.470;2022-11-02T12:25:15;101181.98;;;11.19;41.34
39954;BME280;25631;51.516;-0.470;2022-11-02T12:28:02;101185.29;;;11.10;41.45
39954;BME280;25631;51.516;-0.470;2022-11-02T12:30:52;101172.99;;;11.33;41.28
39954;BME280;25631;51.516;-0.470;2022-11-02T12:33:43;101166.35;;;11.51;40.99
39954;BME280;25631;51.516;-0.470;2022-11-02T12:36:35;101164.38;;;11.40;40.85
39954;BME280;25631;51.516;-0.470;2022-11-02T12:39:24;101161.93;;;11.67;40.74
39954;BME280;25631;51.516;-0.470;2022-11-02T12:42:15;101156.94;;;11.65;40.67
39954;BME280;25631;51.516;-0.470;2022-11-02T12:45:17;101150.51;;;11.54;40.83
39954;BME280;25631;51.516;-0.470;2022-11-02T12:47:57;101154.94;;;11.05;40.46
39954;BME280;25631;51.516;-0.470;2022-11-02T12:50:48;101141.54;;;11.48;40.48
39954;BME280;25631;51.516;-0.470;2022-11-02T12:53:38;101144.59;;;11.39;40.40
39954;BME280;25631;51.516;-0.470;2022-11-02T12:56:19;101134.15;;;11.43;39.85
39954;BME280;25631;51.516;-0.470;2022-11-02T12:58:57;101130.44;;;11.33;39.61
39954;BME280;25631;51.516;-0.470;2022-11-02T13:01:37;101127.87;;;10.69;39.93
39954;BME280;25631;51.516;-0.470;2022-11-02T13:04:17;101118.50;;;11.24;39.73
39954;BME280;25631;51.516;-0.470;2022-11-02T13:06:58;101115.15;;;11.81;39.69
39954;BME280;25631;51.516;-0.470;2022-11-02T13:09:40;101107.24;;;11.77;39.56
39954;BME280;25631;51.516;-0.470;2022-11-02T13:12:22;101108.67;;;11.37;38.87
39954;BME280;25631;51.516;-0.470;2022-11-02T13:15:00;101102.35;;;11.54;38.98
39954;BME280;25631;51.516;-0.470;2022-11-02T13:17:40;101093.24;;;11.69;38.88
39954;BME280;25631;51.516;-0.470;2022-11-02T13:20:21;101092.22;;;11.24;38.84
39954;BME280;25631;51.516;-0.470;2022-11-02T13:23:02;101087.85;;;11.22;38.77
39954;BME280;25631;51.516;-0.470;2022-11-02T13:25:43;101076.79;;;11.62;38.60
39954;BME280;25631;51.516;-0.470;2022-11-02T13:28:29;101082.85;;;11.53;38.70
39954;BME280;25631;51.516;-0.470;2022-11-02T13:31:12;101063.05;;;11.79;38.59
39954;BME280;25631;51.516;-0.470;2022-11-02T13:33:53;101066.51;;;11.40;38.58
39954;BME280;25631;51.516;-0.470;2022-11-02T13:36:30;101063.23;;;11.42;38.84
39954;BME280;25631;51.516;-0.470;2022-11-02T13:39:15;101058.16;;;11.37;38.81
39954;BME280;25631;51.516;-0.470;2022-11-02T13:42:09;101054.77;;;11.18;39.43
39954;BME280;25631;51.516;-0.470;2022-11-02T13:45:07;101053.24;;;11.26;39.43
39954;BME280;25631;51.516;-0.470;2022-11-02T13:48:01;101049.00;;;11.80;39.24
39954;BME280;25631;51.516;-0.470;2022-11-02T13:50:47;101054.02;;;11.63;39.27
39954;BME280;25631;51.516;-0.470;2022-11-02T13:53:27;101056.75;;;11.63;39.17